sensor_id;sensor_type;location;lat;lon;timestamp;pressure;altitude;pressure_sealevel;temperature;humidity
64243;BME280;50573;51.512;5.386;2022-08-01T00:06:54;101549.59;;;18.47;100.00
64243;BME280;50573;51.512;5.386;2022-08-01T00:16:58;101553.88;;;18.50;100.00
64243;BME280;50573;51.512;5.386;2022-08-01T00:27:07;101556.41;;;18.53;100.00
64243;BME280;50573;51.512;5.386;2022-08-01T00:37:11;101563.38;;;18.54;100.00
64243;BME280;50573;51.512;5.386;2022-08-01T00:47:16;101561.69;;;18.51;100.00
64243;BME280;50573;51.512;5.386;2022-08-01T00:57:22;101565.25;;;18.49;100.00
64243;BME280;50573;51.512;5.386;2022-08-01T01:07:49;101562.75;;;18.44;100.00
64243;BME280;50573;51.512;5.386;2022-08-01T01:17:59;101567.22;;;18.40;100.00
64243;BME280;50573;51.512;5.386;2022-08-01T01:28:10;101560.44;;;18.33;100.00
64243;BME280;50573;51.512;5.386;2022-08-01T01:38:21;101553.59;;;18.28;100.00
64243;BME280;50573;51.512;5.386;2022-08-01T01:48:24;101552.84;;;18.24;100.00
64243;BME280;50573;51.512;5.386;2022-08-01T01:58:32;101553.91;;;18.17;100.00
64243;BME280;50573;51.512;5.386;2022-08-01T02:08:37;101559.16;;;18.15;100.00
64243;BME280;50573;51.512;5.386;2022-08-01T02:18:43;101553.09;;;18.13;100.00
64243;BME280;50573;51.512;5.386;2022-08-01T02:28:47;101555.72;;;18.13;100.00
64243;BME280;50573;51.512;5.386;2022-08-01T02:38:54;101558.38;;;18.12;100.00
64243;BME280;50573;51.512;5.386;2022-08-01T02:49:00;101554.88;;;18.13;100.00
64243;BME280;50573;51.512;5.386;2022-08-01T02:59:09;101564.44;;;18.14;100.00
64243;BME280;50573;51.512;5.386;2022-08-01T03:09:15;101559.25;;;18.12;100.00
64243;BME280;50573;51.512;5.386;2022-08-01T03:19:22;101552.25;;;18.13;100.00
64243;BME280;50573;51.512;5.386;2022-08-01T03:29:27;101558.38;;;18.12;100.00
64243;BME280;50573;51.512;5.386;2022-08-01T03:39:46;101561.88;;;18.12;100.00
64243;BME280;50573;51.512;5.386;2022-08-01T03:49:50;101562.78;;;18.10;100.00
64243;BME280;50573;51.512;5.386;2022-08-01T03:59:57;101555.88;;;18.07;100.00
64243;BME280;50573;51.512;5.386;2022-08-01T04:10:01;101564.56;;;18.07;100.00
64243;BME280;50573;51.512;5.386;2022-08-01T04:20:06;101573.31;;;18.08;100.00
64243;BME280;50573;51.512;5.386;2022-08-01T04:30:10;101577.53;;;18.14;100.00
64243;BME280;50573;51.512;5.386;2022-08-01T04:40:23;101578.28;;;18.17;100.00
64243;BME280;50573;51.512;5.386;2022-08-01T04:50:27;101587.09;;;18.13;100.00
64243;BME280;50573;51.512;5.386;2022-08-01T05:00:32;101589.28;;;18.32;100.00
64243;BME280;50573;51.512;5.386;2022-08-01T05:10:35;101612.66;;;18.38;100.00
64243;BME280;50573;51.512;5.386;2022-08-01T05:20:40;101614.78;;;18.58;100.00
64243;BME280;50573;51.512;5.386;2022-08-01T05:30:43;101612.06;;;18.61;100.00
64243;BME280;50573;51.512;5.386;2022-08-01T05:40:47;101615.50;;;18.63;100.00
64243;BME280;50573;51.512;5.386;2022-08-01T05:50:50;101619.53;;;18.75;100.00
64243;BME280;50573;51.512;5.386;2022-08-01T06:01:00;101622.88;;;18.80;100.00
64243;BME280;50573;51.512;5.386;2022-08-01T06:11:03;101629.59;;;19.22;99.86
64243;BME280;50573;51.512;5.386;2022-08-01T06:21:08;101621.03;;;19.45;98.07
64243;BME280;50573;51.512;5.386;2022-08-01T06:31:11;101629.09;;;19.39;95.19
64243;BME280;50573;51.512;5.386;2022-08-01T06:41:17;101638.75;;;19.66;95.28
64243;BME280;50573;51.512;5.386;2022-08-01T06:51:20;101641.59;;;19.89;92.59
64243;BME280;50573;51.512;5.386;2022-08-01T07:01:26;101648.31;;;19.97;91.76
64243;BME280;50573;51.512;5.386;2022-08-01T07:11:29;101635.72;;;19.80;90.99
64243;BME280;50573;51.512;5.386;2022-08-01T07:21:33;101640.41;;;20.51;89.09
64243;BME280;50573;51.512;5.386;2022-08-01T07:31:41;101657.00;;;21.02;86.29
64243;BME280;50573;51.512;5.386;2022-08-01T07:41:46;101651.94;;;20.97;83.61
64243;BME280;50573;51.512;5.386;2022-08-01T07:52:08;101662.38;;;20.99;81.54
64243;BME280;50573;51.512;5.386;2022-08-01T08:02:13;101654.38;;;21.02;81.13
64243;BME280;50573;51.512;5.386;2022-08-01T08:12:16;101651.75;;;21.49;80.72
64243;BME280;50573;51.512;5.386;2022-08-01T08:22:30;101661.91;;;22.04;76.21
64243;BME280;50573;51.512;5.386;2022-08-01T08:32:34;101661.47;;;22.15;73.88
64243;BME280;50573;51.512;5.386;2022-08-01T08:42:40;101655.38;;;22.76;71.94
64243;BME280;50573;51.512;5.386;2022-08-01T08:52:44;101653.31;;;23.04;71.38
64243;BME280;50573;51.512;5.386;2022-08-01T09:02:51;101660.69;;;23.16;69.88
64243;BME280;50573;51.512;5.386;2022-08-01T09:13:05;101668.03;;;23.47;67.73
64243;BME280;50573;51.512;5.386;2022-08-01T09:23:30;101675.00;;;23.29;67.14
64243;BME280;50573;51.512;5.386;2022-08-01T09:33:51;101670.66;;;23.85;66.61
64243;BME280;50573;51.512;5.386;2022-08-01T09:43:57;101670.41;;;24.44;62.95
64243;BME280;50573;51.512;5.386;2022-08-01T09:54:02;101673.97;;;24.43;60.18
64243;BME280;50573;51.512;5.386;2022-08-01T10:04:10;101673.22;;;24.59;61.26
64243;BME280;50573;51.512;5.386;2022-08-01T10:14:13;101679.16;;;25.31;58.93
64243;BME280;50573;51.512;5.386;2022-08-01T10:24:21;101682.22;;;25.71;58.66
64243;BME280;50573;51.512;5.386;2022-08-01T10:34:24;101698.22;;;24.34;62.67
64243;BME280;50573;51.512;5.386;2022-08-01T10:44:32;101695.97;;;23.71;65.61
64243;BME280;50573;51.512;5.386;2022-08-01T10:54:39;101696.88;;;23.31;68.65
64243;BME280;50573;51.512;5.386;2022-08-01T11:04:57;101711.31;;;23.04;69.13
64243;BME280;50573;51.512;5.386;2022-08-01T11:15:27;101732.25;;;22.45;69.81
64243;BME280;50573;51.512;5.386;2022-08-01T11:36:32;101737.53;;;22.45;65.99
64243;BME280;50573;51.512;5.386;2022-08-01T11:47:00;101744.25;;;22.08;67.54
64243;BME280;50573;51.512;5.386;2022-08-01T11:57:31;101739.44;;;22.62;66.17
64243;BME280;50573;51.512;5.386;2022-08-01T12:07:37;101743.19;;;23.39;62.66
64243;BME280;50573;51.512;5.386;2022-08-01T12:17:46;101751.34;;;23.13;59.81
64243;BME280;50573;51.512;5.386;2022-08-01T12:28:00;101741.22;;;22.61;62.42
64243;BME280;50573;51.512;5.386;2022-08-01T12:38:07;101742.63;;;23.32;61.14
64243;BME280;50573;51.512;5.386;2022-08-01T12:48:17;101740.97;;;23.09;60.91
64243;BME280;50573;51.512;5.386;2022-08-01T12:58:22;101746.44;;;23.25;60.83
64243;BME280;50573;51.512;5.386;2022-08-01T13:08:31;101730.47;;;23.07;61.22
64243;BME280;50573;51.512;5.386;2022-08-01T13:18:36;101730.16;;;22.53;64.66
64243;BME280;50573;51.512;5.386;2022-08-01T13:28:42;101734.44;;;22.76;64.40
64243;BME280;50573;51.512;5.386;2022-08-01T13:39:05;101737.84;;;23.40;59.36
64243;BME280;50573;51.512;5.386;2022-08-01T13:49:26;101717.97;;;24.27;55.80
64243;BME280;50573;51.512;5.386;2022-08-01T13:59:40;101727.28;;;24.16;53.68
64243;BME280;50573;51.512;5.386;2022-08-01T14:09:43;101713.75;;;23.86;53.95
64243;BME280;50573;51.512;5.386;2022-08-01T14:20:09;101715.00;;;24.33;52.86
64243;BME280;50573;51.512;5.386;2022-08-01T14:30:21;101716.50;;;24.38;52.88
64243;BME280;50573;51.512;5.386;2022-08-01T14:40:26;101716.81;;;23.96;53.31
64243;BME280;50573;51.512;5.386;2022-08-01T14:50:33;101708.66;;;24.72;49.27
64243;BME280;50573;51.512;5.386;2022-08-01T15:00:42;101708.28;;;25.47;49.32
64243;BME280;50573;51.512;5.386;2022-08-01T15:10:52;101688.63;;;26.15;47.70
64243;BME280;50573;51.512;5.386;2022-08-01T15:20:59;101694.25;;;24.95;48.93
64243;BME280;50573;51.512;5.386;2022-08-01T15:31:06;101712.13;;;24.55;48.99
64243;BME280;50573;51.512;5.386;2022-08-01T15:41:16;101716.34;;;24.05;49.98
64243;BME280;50573;51.512;5.386;2022-08-01T15:51:23;101718.34;;;24.36;50.07
64243;BME280;50573;51.512;5.386;2022-08-01T16:01:33;101730.88;;;23.96;50.67
64243;BME280;50573;51.512;5.386;2022-08-01T16:11:40;101715.44;;;24.06;48.65
64243;BME280;50573;51.512;5.386;2022-08-01T16:21:53;101725.84;;;23.33;52.11
64243;BME280;50573;51.512;5.386;2022-08-01T16:31:57;101723.19;;;22.73;53.53
64243;BME280;50573;51.512;5.386;2022-08-01T16:42:28;101697.38;;;22.38;51.48
64243;BME280;50573;51.512;5.386;2022-08-01T16:52:34;101710.59;;;22.16;52.13
64243;BME280;50573;51.512;5.386;2022-08-01T17:02:44;101706.81;;;22.00;52.18
64243;BME280;50573;51.512;5.386;2022-08-01T17:12:53;101708.97;;;21.90;50.29
64243;BME280;50573;51.512;5.386;2022-08-01T17:23:04;101712.00;;;21.79;48.96
64243;BME280;50573;51.512;5.386;2022-08-01T17:33:07;101711.59;;;21.68;48.24
64243;BME280;50573;51.512;5.386;2022-08-01T17:43:18;101723.66;;;21.50;47.93
64243;BME280;50573;51.512;5.386;2022-08-01T17:53:24;101717.69;;;21.45;48.16
64243;BME280;50573;51.512;5.386;2022-08-01T18:03:33;101722.03;;;21.46;48.14
64243;BME280;50573;51.512;5.386;2022-08-01T18:13:42;101727.75;;;21.58;47.42
64243;BME280;50573;51.512;5.386;2022-08-01T18:23:50;101736.66;;;21.29;49.57
64243;BME280;50573;51.512;5.386;2022-08-01T18:34:00;101744.09;;;20.93;50.02
64243;BME280;50573;51.512;5.386;2022-08-01T18:44:07;101740.78;;;20.61;50.23
64243;BME280;50573;51.512;5.386;2022-08-01T18:54:13;101750.50;;;20.30;49.46
64243;BME280;50573;51.512;5.386;2022-08-01T19:04:25;101744.44;;;20.00;50.46
64243;BME280;50573;51.512;5.386;2022-08-01T19:14:30;101755.97;;;19.64;49.72
64243;BME280;50573;51.512;5.386;2022-08-01T19:24:34;101762.03;;;19.35;50.79
64243;BME280;50573;51.512;5.386;2022-08-01T19:34:48;101770.81;;;19.01;51.75
64243;BME280;50573;51.512;5.386;2022-08-01T19:44:56;101790.81;;;18.68;52.10
64243;BME280;50573;51.512;5.386;2022-08-01T19:55:01;101801.13;;;18.38;53.30
64243;BME280;50573;51.512;5.386;2022-08-01T20:05:11;101799.09;;;18.12;54.15
64243;BME280;50573;51.512;5.386;2022-08-01T20:15:14;101799.72;;;17.79;55.77
64243;BME280;50573;51.512;5.386;2022-08-01T20:25:19;101808.19;;;17.50;57.31
64243;BME280;50573;51.512;5.386;2022-08-01T20:35:24;101803.34;;;17.28;58.08
64243;BME280;50573;51.512;5.386;2022-08-01T20:45:50;101797.81;;;16.97;59.80
64243;BME280;50573;51.512;5.386;2022-08-01T20:55:53;101804.38;;;16.65;61.23
64243;BME280;50573;51.512;5.386;2022-08-01T21:06:07;101809.94;;;16.43;62.22
64243;BME280;50573;51.512;5.386;2022-08-01T21:16:15;101826.75;;;16.21;62.72
64243;BME280;50573;51.512;5.386;2022-08-01T21:26:27;101828.69;;;16.03;63.06
64243;BME280;50573;51.512;5.386;2022-08-01T21:36:31;101826.25;;;15.92;64.57
64243;BME280;50573;51.512;5.386;2022-08-01T21:46:36;101817.72;;;15.78;64.16
64243;BME280;50573;51.512;5.386;2022-08-01T21:56:47;101821.41;;;15.57;66.78
64243;BME280;50573;51.512;5.386;2022-08-01T22:06:52;101811.97;;;15.45;66.15
64243;BME280;50573;51.512;5.386;2022-08-01T22:16:56;101814.47;;;15.57;65.56
64243;BME280;50573;51.512;5.386;2022-08-01T22:27:02;101807.47;;;15.61;65.72
64243;BME280;50573;51.512;5.386;2022-08-01T22:37:08;101810.22;;;15.49;65.39
64243;BME280;50573;51.512;5.386;2022-08-01T22:47:21;101800.81;;;15.34;66.32
64243;BME280;50573;51.512;5.386;2022-08-01T22:57:30;101792.19;;;15.27;65.65
64243;BME280;50573;51.512;5.386;2022-08-01T23:07:38;101802.66;;;15.22;65.39
64243;BME280;50573;51.512;5.386;2022-08-01T23:17:45;101798.47;;;15.06;66.69
64243;BME280;50573;51.512;5.386;2022-08-01T23:27:50;101791.50;;;15.06;65.09
64243;BME280;50573;51.512;5.386;2022-08-01T23:38:07;101774.88;;;15.21;63.34
64243;BME280;50573;51.512;5.386;2022-08-01T23:48:12;101770.53;;;15.22;62.77
64243;BME280;50573;51.512;5.386;2022-08-01T23:58:15;101760.09;;;15.23;62.54
